sensor_id;sensor_type;location;lat;lon;timestamp;P1;durP1;ratioP1;P2;durP2;ratioP2
38252;SDS011;24785;52.372;20.672;2022-10-30T00:07:06;30.13;;;12.88;;
38252;SDS011;24785;52.372;20.672;2022-10-30T00:17:07;29.95;;;12.80;;
38252;SDS011;24785;52.372;20.672;2022-10-30T00:27:08;45.85;;;25.00;;
38252;SDS011;24785;52.372;20.672;2022-10-30T00:37:09;27.05;;;13.60;;
38252;SDS011;24785;52.372;20.672;2022-10-30T00:57:14;28.63;;;13.02;;
38252;SDS011;24785;52.372;20.672;2022-10-30T01:07:16;27.58;;;12.68;;
38252;SDS011;24785;52.372;20.672;2022-10-30T01:37:35;24.20;;;12.77;;
38252;SDS011;24785;52.372;20.672;2022-10-30T01:58:19;25.17;;;12.35;;
38252;SDS011;24785;52.372;20.672;2022-10-30T02:08:26;23.42;;;12.55;;
38252;SDS011;24785;52.372;20.672;2022-10-30T02:18:27;37.10;;;14.25;;
38252;SDS011;24785;52.372;20.672;2022-10-30T02:28:29;27.00;;;14.03;;
38252;SDS011;24785;52.372;20.672;2022-10-30T02:38:30;26.95;;;13.68;;
38252;SDS011;24785;52.372;20.672;2022-10-30T02:48:31;30.25;;;14.07;;
38252;SDS011;24785;52.372;20.672;2022-10-30T02:58:33;26.77;;;13.87;;
38252;SDS011;24785;52.372;20.672;2022-10-30T03:08:34;29.77;;;15.70;;
38252;SDS011;24785;52.372;20.672;2022-10-30T03:18:36;24.58;;;14.05;;
38252;SDS011;24785;52.372;20.672;2022-10-30T03:28:37;30.15;;;13.45;;
38252;SDS011;24785;52.372;20.672;2022-10-30T03:38:38;31.55;;;14.88;;
38252;SDS011;24785;52.372;20.672;2022-10-30T03:48:39;35.65;;;18.15;;
38252;SDS011;24785;52.372;20.672;2022-10-30T03:58:40;27.38;;;13.85;;
38252;SDS011;24785;52.372;20.672;2022-10-30T04:08:41;27.50;;;13.88;;
38252;SDS011;24785;52.372;20.672;2022-10-30T04:18:42;26.35;;;12.68;;
38252;SDS011;24785;52.372;20.672;2022-10-30T04:28:42;26.63;;;13.32;;
38252;SDS011;24785;52.372;20.672;2022-10-30T04:38:43;28.02;;;12.70;;
38252;SDS011;24785;52.372;20.672;2022-10-30T04:48:44;28.45;;;12.57;;
38252;SDS011;24785;52.372;20.672;2022-10-30T04:58:45;26.73;;;12.25;;
38252;SDS011;24785;52.372;20.672;2022-10-30T05:08:46;31.50;;;13.20;;
38252;SDS011;24785;52.372;20.672;2022-10-30T05:18:47;25.05;;;12.45;;
38252;SDS011;24785;52.372;20.672;2022-10-30T05:28:48;25.60;;;12.48;;
38252;SDS011;24785;52.372;20.672;2022-10-30T05:38:48;25.08;;;12.32;;
38252;SDS011;24785;52.372;20.672;2022-10-30T05:48:49;26.50;;;12.82;;
38252;SDS011;24785;52.372;20.672;2022-10-30T05:58:50;22.50;;;11.25;;
38252;SDS011;24785;52.372;20.672;2022-10-30T06:08:51;26.35;;;12.32;;
38252;SDS011;24785;52.372;20.672;2022-10-30T06:18:52;26.60;;;12.05;;
38252;SDS011;24785;52.372;20.672;2022-10-30T06:28:52;30.63;;;13.05;;
38252;SDS011;24785;52.372;20.672;2022-10-30T06:38:53;32.25;;;12.73;;
38252;SDS011;24785;52.372;20.672;2022-10-30T06:48:54;27.67;;;13.27;;
38252;SDS011;24785;52.372;20.672;2022-10-30T06:58:55;36.83;;;14.43;;
38252;SDS011;24785;52.372;20.672;2022-10-30T07:08:55;25.20;;;11.88;;
38252;SDS011;24785;52.372;20.672;2022-10-30T07:18:56;26.23;;;13.88;;
38252;SDS011;24785;52.372;20.672;2022-10-30T07:28:57;27.10;;;12.68;;
38252;SDS011;24785;52.372;20.672;2022-10-30T07:38:58;24.83;;;11.38;;
38252;SDS011;24785;52.372;20.672;2022-10-30T07:48:59;23.88;;;10.82;;
38252;SDS011;24785;52.372;20.672;2022-10-30T07:59:00;30.30;;;12.13;;
38252;SDS011;24785;52.372;20.672;2022-10-30T08:09:01;24.73;;;9.82;;
38252;SDS011;24785;52.372;20.672;2022-10-30T08:19:02;18.02;;;9.90;;
38252;SDS011;24785;52.372;20.672;2022-10-30T08:29:03;18.27;;;8.93;;
38252;SDS011;24785;52.372;20.672;2022-10-30T08:39:04;23.02;;;9.88;;
38252;SDS011;24785;52.372;20.672;2022-10-30T08:49:05;17.55;;;8.88;;
38252;SDS011;24785;52.372;20.672;2022-10-30T08:59:05;19.10;;;9.00;;
38252;SDS011;24785;52.372;20.672;2022-10-30T09:09:06;13.38;;;7.38;;
38252;SDS011;24785;52.372;20.672;2022-10-30T09:19:08;15.07;;;8.15;;
38252;SDS011;24785;52.372;20.672;2022-10-30T09:29:09;19.10;;;6.40;;
38252;SDS011;24785;52.372;20.672;2022-10-30T09:39:10;12.23;;;6.78;;
38252;SDS011;24785;52.372;20.672;2022-10-30T09:49:23;15.63;;;6.57;;
38252;SDS011;24785;52.372;20.672;2022-10-30T10:10:06;11.50;;;4.88;;
38252;SDS011;24785;52.372;20.672;2022-10-30T10:40:59;10.68;;;5.35;;
38252;SDS011;24785;52.372;20.672;2022-10-30T10:51:23;11.48;;;4.45;;
38252;SDS011;24785;52.372;20.672;2022-10-30T11:01:34;11.65;;;4.47;;
38252;SDS011;24785;52.372;20.672;2022-10-30T11:11:37;13.05;;;4.80;;
38252;SDS011;24785;52.372;20.672;2022-10-30T11:21:41;9.93;;;4.45;;
38252;SDS011;24785;52.372;20.672;2022-10-30T11:31:46;9.68;;;3.67;;
38252;SDS011;24785;52.372;20.672;2022-10-30T11:52:18;5.68;;;2.85;;
38252;SDS011;24785;52.372;20.672;2022-10-30T12:02:25;7.50;;;3.55;;
38252;SDS011;24785;52.372;20.672;2022-10-30T12:12:32;6.82;;;2.58;;
38252;SDS011;24785;52.372;20.672;2022-10-30T12:22:35;5.35;;;3.13;;
38252;SDS011;24785;52.372;20.672;2022-10-30T12:32:41;5.28;;;2.50;;
38252;SDS011;24785;52.372;20.672;2022-10-30T12:42:53;4.22;;;2.80;;
38252;SDS011;24785;52.372;20.672;2022-10-30T12:53:10;8.98;;;3.63;;
38252;SDS011;24785;52.372;20.672;2022-10-30T13:03:38;12.85;;;7.10;;
38252;SDS011;24785;52.372;20.672;2022-10-30T13:13:46;16.08;;;7.70;;
38252;SDS011;24785;52.372;20.672;2022-10-30T13:24:00;12.15;;;5.25;;
38252;SDS011;24785;52.372;20.672;2022-10-30T14:25:29;30.48;;;11.45;;
38252;SDS011;24785;52.372;20.672;2022-10-30T14:35:34;22.77;;;7.88;;
38252;SDS011;24785;52.372;20.672;2022-10-30T14:45:40;46.88;;;21.80;;
38252;SDS011;24785;52.372;20.672;2022-10-30T15:05:59;10.68;;;5.05;;
38252;SDS011;24785;52.372;20.672;2022-10-30T15:16:05;10.05;;;5.30;;
38252;SDS011;24785;52.372;20.672;2022-10-30T15:26:13;20.38;;;7.13;;
38252;SDS011;24785;52.372;20.672;2022-10-30T15:36:20;29.20;;;13.90;;
38252;SDS011;24785;52.372;20.672;2022-10-30T15:46:23;18.25;;;9.43;;
38252;SDS011;24785;52.372;20.672;2022-10-30T15:56:40;27.10;;;11.18;;
38252;SDS011;24785;52.372;20.672;2022-10-30T16:06:50;32.88;;;13.98;;
38252;SDS011;24785;52.372;20.672;2022-10-30T16:16:53;15.88;;;7.40;;
38252;SDS011;24785;52.372;20.672;2022-10-30T16:37:04;14.15;;;6.50;;
38252;SDS011;24785;52.372;20.672;2022-10-30T16:57:21;23.33;;;10.52;;
38252;SDS011;24785;52.372;20.672;2022-10-30T17:07:26;28.35;;;13.27;;
38252;SDS011;24785;52.372;20.672;2022-10-30T17:27:36;20.35;;;8.35;;
38252;SDS011;24785;52.372;20.672;2022-10-30T17:37:43;33.80;;;12.97;;
38252;SDS011;24785;52.372;20.672;2022-10-30T17:47:44;16.85;;;8.20;;
38252;SDS011;24785;52.372;20.672;2022-10-30T17:57:44;34.22;;;13.23;;
38252;SDS011;24785;52.372;20.672;2022-10-30T18:07:45;49.42;;;17.55;;
38252;SDS011;24785;52.372;20.672;2022-10-30T18:17:46;46.97;;;16.35;;
38252;SDS011;24785;52.372;20.672;2022-10-30T18:27:48;48.08;;;20.23;;
38252;SDS011;24785;52.372;20.672;2022-10-30T18:37:49;51.53;;;18.47;;
38252;SDS011;24785;52.372;20.672;2022-10-30T18:47:50;50.95;;;20.02;;
38252;SDS011;24785;52.372;20.672;2022-10-30T18:57:52;59.97;;;23.00;;
38252;SDS011;24785;52.372;20.672;2022-10-30T19:07:53;35.95;;;14.57;;
38252;SDS011;24785;52.372;20.672;2022-10-30T19:17:54;42.25;;;17.83;;
38252;SDS011;24785;52.372;20.672;2022-10-30T19:27:55;44.97;;;17.02;;
38252;SDS011;24785;52.372;20.672;2022-10-30T19:37:56;44.40;;;17.58;;
38252;SDS011;24785;52.372;20.672;2022-10-30T19:47:57;42.60;;;17.58;;
38252;SDS011;24785;52.372;20.672;2022-10-30T19:58:00;32.40;;;15.43;;
38252;SDS011;24785;52.372;20.672;2022-10-30T20:08:06;29.87;;;12.83;;
38252;SDS011;24785;52.372;20.672;2022-10-30T20:18:16;36.80;;;17.00;;
38252;SDS011;24785;52.372;20.672;2022-10-30T20:38:31;47.17;;;18.23;;
38252;SDS011;24785;52.372;20.672;2022-10-30T20:48:33;27.83;;;11.90;;
38252;SDS011;24785;52.372;20.672;2022-10-30T20:58:34;19.05;;;8.40;;
38252;SDS011;24785;52.372;20.672;2022-10-30T21:08:35;19.13;;;7.68;;
38252;SDS011;24785;52.372;20.672;2022-10-30T21:18:36;18.80;;;9.82;;
38252;SDS011;24785;52.372;20.672;2022-10-30T21:28:37;18.15;;;9.10;;
38252;SDS011;24785;52.372;20.672;2022-10-30T21:38:41;21.23;;;11.27;;
38252;SDS011;24785;52.372;20.672;2022-10-30T21:48:43;22.50;;;10.93;;
38252;SDS011;24785;52.372;20.672;2022-10-30T21:58:44;23.13;;;9.95;;
38252;SDS011;24785;52.372;20.672;2022-10-30T22:08:48;19.73;;;8.90;;
38252;SDS011;24785;52.372;20.672;2022-10-30T22:18:51;32.05;;;10.25;;
38252;SDS011;24785;52.372;20.672;2022-10-30T22:28:53;21.58;;;8.32;;
38252;SDS011;24785;52.372;20.672;2022-10-30T22:58:59;21.05;;;9.18;;
38252;SDS011;24785;52.372;20.672;2022-10-30T23:09:05;21.40;;;7.90;;
38252;SDS011;24785;52.372;20.672;2022-10-30T23:19:09;20.83;;;9.00;;
38252;SDS011;24785;52.372;20.672;2022-10-30T23:29:10;16.63;;;8.27;;
38252;SDS011;24785;52.372;20.672;2022-10-30T23:39:15;20.73;;;7.22;;
38252;SDS011;24785;52.372;20.672;2022-10-30T23:49:16;19.83;;;7.78;;
38252;SDS011;24785;52.372;20.672;2022-10-30T23:59:17;22.20;;;8.93;;
